Time;durP1;ratioP1;P1;durP2;ratioP2;P2;SDS_P1;SDS_P2;PMS_P1;PMS_P2;Temp;Humidity;BMP_temperature;BMP_pressure;BME280_temperature;BME280_humidity;BME280_pressure;Samples;Min_cycle;Max_cycle;Signal;HPM_P1;HPM_P2
2022/07/17 00:00:14;;;;;;;;;;;;;;;16.37;57.36;100885.44;5037566;28;990;-62
2022/07/17 00:02:39;;;;;;;;;;;;;;;16.31;57.50;100878.28;5037690;28;1033;-62
2022/07/17 00:05:05;;;;;;;;;;;;;;;16.32;57.15;100874.44;5037758;28;977;-62
2022/07/17 00:07:30;;;;;;;;;;;;;;;16.28;57.08;100867.84;5037074;28;1385;-61
2022/07/17 00:09:56;;;;;;;;;;;;;;;16.27;57.01;100876.34;5037516;28;1057;-62
2022/07/17 00:12:21;;;;;;;;;;;;;;;16.20;57.25;100871.09;5035982;28;1025;-64
2022/07/17 00:14:46;;;;;;;;;;;;;;;16.21;57.25;100872.75;5035687;28;1384;-60
2022/07/17 00:17:12;;;;;;;;;;;;;;;16.14;57.33;100867.53;5037376;28;1971;-60
2022/07/17 00:19:37;;;;;;;;;;;;;;;16.15;57.04;100876.59;5037017;28;1176;-60
2022/07/17 00:22:03;;;;;;;;;;;;;;;16.19;56.86;100875.78;5037364;28;989;-61
2022/07/17 00:24:29;;;;;;;;;;;;;;;16.15;56.79;100871.09;5037094;28;1025;-61
2022/07/17 00:26:54;;;;;;;;;;;;;;;16.19;56.76;100867.53;5037284;28;986;-61
2022/07/17 00:29:19;;;;;;;;;;;;;;;16.16;56.75;100872.72;5038027;28;1088;-62
2022/07/17 00:31:45;;;;;;;;;;;;;;;16.10;56.84;100865.59;5040600;28;1151;-61
2022/07/17 00:34:10;;;;;;;;;;;;;;;16.07;56.77;100859.56;5037181;28;993;-61
2022/07/17 00:36:36;;;;;;;;;;;;;;;16.08;56.85;100858.44;5036212;28;1926;-62
2022/07/17 00:39:01;;;;;;;;;;;;;;;16.08;56.91;100865.84;5037236;28;966;-61
2022/07/17 00:41:27;;;;;;;;;;;;;;;16.04;56.75;100862.81;5037379;28;990;-61
2022/07/17 00:43:52;;;;;;;;;;;;;;;16.30;57.53;100864.81;5036662;28;1062;-62
2022/07/17 00:46:18;;;;;;;;;;;;;;;17.43;57.50;100860.31;5037178;28;1060;-62
2022/07/17 00:48:43;;;;;;;;;;;;;;;16.79;58.61;100866.31;5034605;28;1388;-61
2022/07/17 00:51:09;;;;;;;;;;;;;;;16.58;58.33;100856.13;5038378;28;1092;-62
2022/07/17 00:53:35;;;;;;;;;;;;;;;16.51;57.94;100861.06;5031321;28;1191;-60
2022/07/17 00:56:01;;;;;;;;;;;;;;;16.42;57.78;100866.25;5036788;28;1989;-60
2022/07/17 00:58:26;;;;;;;;;;;;;;;16.36;57.59;100863.75;5025156;28;1042;-60
2022/07/17 01:00:52;;;;;;;;;;;;;;;16.38;57.54;100869.78;5035962;28;1066;-60
2022/07/17 01:03:18;;;;;;;;;;;;;;;16.34;57.27;100877.75;5036730;28;1021;-60
2022/07/17 01:05:44;;;;;;;;;;;;;;;16.30;57.10;100871.16;5036430;28;990;-60
2022/07/17 01:08:09;;;;;;;;;;;;;;;16.27;57.14;100862.63;5036354;28;1047;-60
2022/07/17 01:10:35;;;;;;;;;;;;;;;16.25;57.03;100868.38;5037006;28;1061;-60
2022/07/17 01:13:00;;;;;;;;;;;;;;;16.23;57.13;100859.63;5020789;28;1030;-60
2022/07/17 01:15:26;;;;;;;;;;;;;;;16.19;57.20;100864.00;5036462;28;1910;-60
2022/07/17 01:17:51;;;;;;;;;;;;;;;16.20;57.14;100860.13;5036098;28;1136;-60
2022/07/17 01:20:17;;;;;;;;;;;;;;;16.21;56.95;100856.28;5036275;28;994;-59
2022/07/17 01:22:46;;;;;;;;;;;;;;;16.18;56.97;100859.59;5038404;28;1132;-60
2022/07/17 01:25:12;;;;;;;;;;;;;;;16.19;56.54;100853.00;5039706;28;997;-60
2022/07/17 01:27:38;;;;;;;;;;;;;;;16.13;56.74;100854.06;5036059;28;994;-61
2022/07/17 01:30:04;;;;;;;;;;;;;;;16.13;56.74;100848.59;5036991;28;1061;-61
2022/07/17 01:32:36;;;;;;;;;;;;;;;16.06;57.04;100848.81;5036060;28;1202;-60
2022/07/17 01:35:02;;;;;;;;;;;;;;;16.07;56.99;100861.47;5035832;28;1996;-60
2022/07/17 01:37:27;;;;;;;;;;;;;;;16.05;56.80;100856.25;5030403;28;1387;-60
2022/07/17 01:39:53;;;;;;;;;;;;;;;16.04;56.80;100856.50;5036152;28;1486;-60
2022/07/17 01:42:19;;;;;;;;;;;;;;;16.02;56.81;100854.03;5035602;28;1176;-60
2022/07/17 01:44:44;;;;;;;;;;;;;;;16.02;56.98;100848.56;5035857;28;1089;-60
2022/07/17 01:47:11;;;;;;;;;;;;;;;16.00;56.98;100855.41;5036389;28;1180;-61
2022/07/17 01:49:37;;;;;;;;;;;;;;;15.98;56.99;100852.94;5035977;28;1029;-62
2022/07/17 01:52:03;;;;;;;;;;;;;;;15.96;56.97;100849.59;5036042;28;1224;-60
2022/07/17 01:54:29;;;;;;;;;;;;;;;16.95;57.57;100851.53;5035845;28;1081;-61
2022/07/17 01:56:54;;;;;;;;;;;;;;;17.12;58.02;100842.19;5038539;28;1898;-60
2022/07/17 01:59:20;;;;;;;;;;;;;;;16.68;58.53;100860.81;5039794;28;1042;-60
2022/07/17 02:01:45;;;;;;;;;;;;;;;16.53;58.34;100853.38;5021799;28;1038;-60
2022/07/17 02:04:11;;;;;;;;;;;;;;;16.43;57.72;100851.41;5039645;28;1013;-60
2022/07/17 02:06:36;;;;;;;;;;;;;;;16.38;57.70;100859.66;5040005;28;1081;-60
2022/07/17 02:09:02;;;;;;;;;;;;;;;16.32;57.39;100855.22;5039842;28;1096;-60
2022/07/17 02:11:27;;;;;;;;;;;;;;;16.30;57.30;100864.81;5039826;28;1005;-60
2022/07/17 02:13:53;;;;;;;;;;;;;;;16.27;57.35;100859.88;5039350;28;994;-60
2022/07/17 02:16:18;;;;;;;;;;;;;;;16.25;56.88;100851.94;5039667;28;1989;-60
2022/07/17 02:18:43;;;;;;;;;;;;;;;16.23;57.21;100859.63;5039575;28;1081;-61
2022/07/17 02:21:09;;;;;;;;;;;;;;;16.20;56.92;100860.13;5039406;28;959;-60
2022/07/17 02:23:35;;;;;;;;;;;;;;;16.15;56.96;100857.38;5045320;28;1420;-60
2022/07/17 02:26:00;;;;;;;;;;;;;;;16.11;56.91;100861.75;5039035;28;1064;-60
2022/07/17 02:28:26;;;;;;;;;;;;;;;16.13;57.10;100870.53;5039530;28;1017;-60
2022/07/17 02:30:51;;;;;;;;;;;;;;;16.07;57.14;100865.03;5046118;28;1053;-60
2022/07/17 02:33:17;;;;;;;;;;;;;;;16.05;56.89;100858.97;5039159;28;970;-60
2022/07/17 02:35:42;;;;;;;;;;;;;;;16.05;57.04;100863.66;5040059;28;1965;-60
2022/07/17 02:38:07;;;;;;;;;;;;;;;16.07;56.98;100872.44;5039200;28;998;-61
2022/07/17 02:40:33;;;;;;;;;;;;;;;16.00;56.78;100866.38;5038919;28;1207;-61
2022/07/17 02:42:58;;;;;;;;;;;;;;;15.99;57.01;100873.78;5039370;28;1026;-61
2022/07/17 02:45:27;;;;;;;;;;;;;;;16.06;56.79;100877.09;5039093;28;1239;-61
2022/07/17 02:47:53;;;;;;;;;;;;;;;16.00;56.78;100878.16;5038872;28;1021;-60
2022/07/17 02:50:18;;;;;;;;;;;;;;;16.01;56.76;100879.00;5038352;28;1156;-60
2022/07/17 02:52:44;;;;;;;;;;;;;;;16.05;57.50;100880.94;5038784;28;1187;-60
2022/07/17 02:55:09;;;;;;;;;;;;;;;17.28;57.56;100879.56;5038973;28;1963;-60
2022/07/17 02:57:35;;;;;;;;;;;;;;;16.70;58.53;100886.06;5038374;28;1168;-61
2022/07/17 03:00:01;;;;;;;;;;;;;;;16.52;58.39;100889.31;5039063;28;1064;-60
2022/07/17 03:02:26;;;;;;;;;;;;;;;16.38;58.09;100889.84;5042220;28;1045;-60
2022/07/17 03:04:52;;;;;;;;;;;;;;;16.35;57.79;100895.03;5042638;28;990;-60
2022/07/17 03:07:17;;;;;;;;;;;;;;;16.24;57.60;100894.16;5037581;28;1108;-60
2022/07/17 03:09:42;;;;;;;;;;;;;;;16.21;57.40;100897.44;5038798;28;959;-61
2022/07/17 03:12:08;;;;;;;;;;;;;;;16.24;57.17;100894.16;5038098;28;1073;-70
2022/07/17 03:14:33;;;;;;;;;;;;;;;16.16;57.07;100884.56;5038199;28;1180;-70
2022/07/17 03:16:59;;;;;;;;;;;;;;;16.15;57.20;100884.81;5038926;28;1918;-66
2022/07/17 03:19:24;;;;;;;;;;;;;;;16.13;57.06;100884.25;5038533;28;1010;-66
2022/07/17 03:21:49;;;;;;;;;;;;;;;16.14;56.97;100877.69;5038590;28;1017;-66
2022/07/17 03:24:15;;;;;;;;;;;;;;;16.14;56.93;100883.16;5038310;28;1289;-69
2022/07/17 03:26:40;;;;;;;;;;;;;;;16.13;56.90;100881.50;5037585;28;808;-66
2022/07/17 03:29:06;;;;;;;;;;;;;;;16.05;56.98;100888.34;5038320;28;1029;-64
2022/07/17 03:31:31;;;;;;;;;;;;;;;16.10;56.88;100887.53;5044230;28;1203;-66
2022/07/17 03:33:56;;;;;;;;;;;;;;;16.03;56.75;100888.63;5038031;28;966;-65
2022/07/17 03:36:22;;;;;;;;;;;;;;;15.98;56.79;100890.50;5038239;28;1969;-67
2022/07/17 03:38:47;;;;;;;;;;;;;;;16.00;56.79;100894.59;5037648;28;1156;-66
2022/07/17 03:41:13;;;;;;;;;;;;;;;16.22;57.62;100896.38;5037879;28;1065;-64
2022/07/17 03:43:38;;;;;;;;;;;;;;;17.37;57.61;100888.06;5037979;28;1152;-64
2022/07/17 03:46:04;;;;;;;;;;;;;;;16.89;59.20;100891.91;5037923;28;1457;-67
2022/07/17 03:48:29;;;;;;;;;;;;;;;16.79;59.77;100899.25;5038109;28;1207;-64
2022/07/17 03:50:55;;;;;;;;;;;;;;;16.83;59.82;100889.38;5037347;28;996;-62
2022/07/17 03:53:20;;;;;;;;;;;;;;;16.66;59.66;100901.47;5037891;28;1204;-60
2022/07/17 03:55:46;;;;;;;;;;;;;;;16.66;59.34;100904.22;5037407;28;1914;-62
2022/07/17 03:58:11;;;;;;;;;;;;;;;16.62;59.16;100894.84;5037359;28;1085;-61
2022/07/17 04:00:37;;;;;;;;;;;;;;;16.72;59.40;100903.09;5037353;28;1520;-65
2022/07/17 04:03:02;;;;;;;;;;;;;;;16.71;59.93;100914.38;5035340;28;2531;-61
2022/07/17 04:05:28;;;;;;;;;;;;;;;16.79;59.50;100911.09;5041649;28;1874;-61
2022/07/17 04:07:53;;;;;;;;;;;;;;;16.79;59.88;100910.25;5046938;28;1959;-63
2022/07/17 04:10:18;;;;;;;;;;;;;;;16.81;59.78;100913.56;5040858;28;1997;-63
2022/07/17 04:12:44;;;;;;;;;;;;;;;16.83;59.86;100911.34;5048053;28;2094;-64
2022/07/17 04:15:10;;;;;;;;;;;;;;;16.85;59.79;100906.44;5046016;28;1976;-63
2022/07/17 04:17:35;;;;;;;;;;;;;;;16.71;60.14;100904.19;5040410;28;1946;-61
2022/07/17 04:20:01;;;;;;;;;;;;;;;16.76;59.98;100900.66;5035631;28;2143;-61
2022/07/17 04:22:26;;;;;;;;;;;;;;;16.81;59.62;100913.56;5037346;28;1123;-61
2022/07/17 04:24:52;;;;;;;;;;;;;;;16.80;59.63;100909.16;5038816;28;1161;-62
2022/07/17 04:27:17;;;;;;;;;;;;;;;16.75;59.45;100916.28;5035111;28;855;-60
2022/07/17 04:29:43;;;;;;;;;;;;;;;16.71;59.42;100914.38;5037041;28;1149;-60
2022/07/17 04:32:08;;;;;;;;;;;;;;;16.70;59.14;100921.75;5041945;28;1104;-55
2022/07/17 04:34:34;;;;;;;;;;;;;;;16.67;59.18;100925.06;5025890;28;1573;-60
2022/07/17 04:37:00;;;;;;;;;;;;;;;16.68;59.05;100926.72;5036629;28;1906;-60
2022/07/17 04:39:25;;;;;;;;;;;;;;;16.70;58.92;100929.19;5034033;28;828;-60
2022/07/17 04:41:51;;;;;;;;;;;;;;;16.73;58.69;100934.13;5038370;28;1136;-58
2022/07/17 04:44:16;;;;;;;;;;;;;;;16.69;58.86;100930.28;5036611;28;1502;-60
2022/07/17 04:46:42;;;;;;;;;;;;;;;16.70;58.75;100934.69;5037012;28;1077;-60
2022/07/17 04:49:07;;;;;;;;;;;;;;;16.69;58.91;100944.00;5036833;28;2406;-64
2022/07/17 04:51:33;;;;;;;;;;;;;;;16.69;58.75;100947.59;5036506;28;884;-61
2022/07/17 04:53:58;;;;;;;;;;;;;;;16.61;58.66;100950.84;5036655;28;1275;-63
2022/07/17 04:56:24;;;;;;;;;;;;;;;16.62;58.25;100944.28;5036485;28;1909;-62
2022/07/17 04:58:49;;;;;;;;;;;;;;;16.61;58.08;100953.59;5040559;28;1084;-60
2022/07/17 05:01:16;;;;;;;;;;;;;;;16.58;58.01;100956.91;5039287;28;1007;-63
2022/07/17 05:03:41;;;;;;;;;;;;;;;16.55;57.92;100951.91;5036194;28;910;-63
2022/07/17 05:06:07;;;;;;;;;;;;;;;16.52;57.99;100961.53;5035957;28;1183;-63
2022/07/17 05:08:33;;;;;;;;;;;;;;;16.53;57.79;100962.34;5036350;28;1096;-61
2022/07/17 05:10:59;;;;;;;;;;;;;;;16.52;58.08;100960.69;5036242;28;1201;-64
2022/07/17 05:13:25;;;;;;;;;;;;;;;16.51;57.81;100959.03;5036295;28;1069;-63
2022/07/17 05:15:50;;;;;;;;;;;;;;;16.52;57.92;100961.53;5037717;28;1906;-64
2022/07/17 05:18:16;;;;;;;;;;;;;;;16.48;58.02;100965.06;5040132;28;2320;-63
2022/07/17 05:20:41;;;;;;;;;;;;;;;16.48;57.64;100962.31;5049326;28;1270;-64
2022/07/17 05:23:07;;;;;;;;;;;;;;;16.43;57.94;100972.19;5036188;28;1132;-62
2022/07/17 05:25:32;;;;;;;;;;;;;;;16.44;57.93;100967.53;5035285;28;1211;-64
2022/07/17 05:27:58;;;;;;;;;;;;;;;16.41;57.78;100957.91;5035835;28;866;-63
2022/07/17 05:30:23;;;;;;;;;;;;;;;16.40;57.87;100969.97;5038816;28;1080;-64
2022/07/17 05:32:48;;;;;;;;;;;;;;;16.40;57.80;100961.75;5035816;28;982;-68
2022/07/17 05:35:14;;;;;;;;;;;;;;;16.37;57.96;100969.72;5038103;28;1906;-62
2022/07/17 05:37:39;;;;;;;;;;;;;;;16.37;57.79;100965.03;5035306;28;1506;-64
2022/07/17 05:40:05;;;;;;;;;;;;;;;16.34;57.78;100971.06;5035520;28;1129;-62
2022/07/17 05:42:30;;;;;;;;;;;;;;;16.37;57.86;100970.53;5039664;28;1580;-62
2022/07/17 05:44:56;;;;;;;;;;;;;;;16.32;57.97;100977.91;5035987;28;978;-64
2022/07/17 05:47:21;;;;;;;;;;;;;;;16.35;57.87;100964.47;5040557;28;1041;-60
2022/07/17 05:49:47;;;;;;;;;;;;;;;16.35;57.81;100966.38;5036319;28;2577;-59
2022/07/17 05:52:12;;;;;;;;;;;;;;;17.25;56.79;100970.78;5035073;28;1072;-58
2022/07/17 05:54:38;;;;;;;;;;;;;;;17.45;55.46;100970.00;5035668;28;1099;-61
2022/07/17 05:57:03;;;;;;;;;;;;;;;16.81;55.27;100977.53;5034301;28;1905;-61
2022/07/17 05:59:29;;;;;;;;;;;;;;;18.43;54.08;100976.16;5036582;28;1097;-60
2022/07/17 06:01:54;;;;;;;;;;;;;;;17.39;55.21;100969.16;5036199;28;1144;-60
2022/07/17 06:04:20;;;;;;;;;;;;;;;17.12;54.25;100985.88;5035078;28;962;-61
2022/07/17 06:06:45;;;;;;;;;;;;;;;17.61;54.97;100981.81;5032244;28;1112;-59
2022/07/17 06:09:11;;;;;;;;;;;;;;;17.47;55.20;100977.97;5035300;28;1199;-60
2022/07/17 06:11:36;;;;;;;;;;;;;;;17.22;54.14;100965.84;5035837;28;962;-62
2022/07/17 06:14:01;;;;;;;;;;;;;;;17.02;53.24;100961.97;5035657;28;1089;-64
2022/07/17 06:16:27;;;;;;;;;;;;;;;17.07;52.50;100975.72;5040639;28;1977;-64
2022/07/17 06:18:52;;;;;;;;;;;;;;;17.74;54.39;100973.00;5046053;28;2542;-61
2022/07/17 06:21:18;;;;;;;;;;;;;;;17.30;54.00;100970.78;5035498;28;1208;-61
2022/07/17 06:23:43;;;;;;;;;;;;;;;17.22;52.81;100974.09;5017632;28;1069;-62
2022/07/17 06:26:09;;;;;;;;;;;;;;;17.19;52.07;100966.38;5035607;28;1282;-61
2022/07/17 06:28:34;;;;;;;;;;;;;;;17.42;52.77;100979.59;5037128;28;943;-61
2022/07/17 06:30:59;;;;;;;;;;;;;;;17.54;53.24;100981.25;5039859;28;1172;-58
2022/07/17 06:33:25;;;;;;;;;;;;;;;17.33;52.39;100983.16;5037448;28;1107;-61
2022/07/17 06:35:50;;;;;;;;;;;;;;;17.25;51.55;100979.88;5032914;28;1994;-61
2022/07/17 06:38:16;;;;;;;;;;;;;;;17.20;51.30;100982.59;5037443;28;1033;-61
2022/07/17 06:40:42;;;;;;;;;;;;;;;17.15;50.99;100979.03;5034072;28;942;-60
2022/07/17 06:43:07;;;;;;;;;;;;;;;17.93;52.00;100977.94;5038205;28;990;-60
2022/07/17 06:45:33;;;;;;;;;;;;;;;15.72;58.47;100978.91;5039224;28;1025;-60
2022/07/17 06:47:58;;;;;;;;;;;;;;;17.27;57.15;100976.84;5033981;28;2450;-60
2022/07/17 06:50:24;;;;;;;;;;;;;;;18.67;54.99;100978.25;5044871;28;947;-60
2022/07/17 06:52:49;;;;;;;;;;;;;;;14.94;63.67;100975.69;5038391;28;1055;-62
2022/07/17 06:55:15;;;;;;;;;;;;;;;16.79;55.43;100978.91;5043125;28;1905;-60
2022/07/17 06:57:40;;;;;;;;;;;;;;;17.02;53.26;100978.44;5038592;28;1042;-60
2022/07/17 07:00:06;;;;;;;;;;;;;;;17.05;52.68;100985.31;5039332;28;1061;-60
2022/07/17 07:02:31;;;;;;;;;;;;;;;17.61;53.88;100990.03;5040950;28;1182;-60
2022/07/17 07:04:57;;;;;;;;;;;;;;;17.40;52.96;100984.56;5036835;28;927;-59
2022/07/17 07:07:22;;;;;;;;;;;;;;;17.29;52.41;100985.63;5038098;28;1168;-64
2022/07/17 07:09:47;;;;;;;;;;;;;;;17.24;51.57;100982.91;5038602;28;1069;-60
2022/07/17 07:12:13;;;;;;;;;;;;;;;17.23;51.30;100975.75;5044834;28;882;-62
2022/07/17 07:14:38;;;;;;;;;;;;;;;17.28;50.57;100995.00;5038110;28;1033;-57
2022/07/17 07:17:05;;;;;;;;;;;;;;;17.20;50.52;100984.53;5038191;28;1985;-63
2022/07/17 07:19:30;;;;;;;;;;;;;;;17.88;51.38;100980.66;5037825;28;2370;-64
2022/07/17 07:21:56;;;;;;;;;;;;;;;15.55;58.07;100983.69;5035226;28;1200;-65
2022/07/17 07:24:22;;;;;;;;;;;;;;;17.69;57.31;100985.94;5041353;28;1167;-64
2022/07/17 07:26:48;;;;;;;;;;;;;;;18.68;55.48;100988.19;5040530;28;1026;-63
2022/07/17 07:29:13;;;;;;;;;;;;;;;15.15;64.83;100987.69;5035740;28;1010;-63
2022/07/17 07:31:38;;;;;;;;;;;;;;;18.67;57.28;100992.03;5039624;28;1191;-65
2022/07/17 07:34:04;;;;;;;;;;;;;;;16.63;61.23;100997.25;5038043;28;1089;-65
2022/07/17 07:36:29;;;;;;;;;;;;;;;16.70;62.51;100998.66;5038326;28;1977;-65
2022/07/17 07:38:55;;;;;;;;;;;;;;;18.86;57.29;100994.97;5037824;28;1013;-63
2022/07/17 07:41:20;;;;;;;;;;;;;;;15.30;64.15;101006.19;5043071;28;892;-64
2022/07/17 07:43:46;;;;;;;;;;;;;;;16.83;57.20;101005.56;5043008;28;1089;-64
2022/07/17 07:46:11;;;;;;;;;;;;;;;17.23;54.47;101003.22;5042054;28;1002;-64
2022/07/17 07:48:36;;;;;;;;;;;;;;;17.34;52.96;101001.31;5037936;28;2588;-64
2022/07/17 07:51:02;;;;;;;;;;;;;;;17.33;52.15;101008.72;5039266;28;1089;-63
2022/07/17 07:53:27;;;;;;;;;;;;;;;17.38;51.37;101011.50;5034100;28;1084;-64
2022/07/17 07:55:53;;;;;;;;;;;;;;;17.32;51.15;101007.09;5037528;28;1898;-64
2022/07/17 07:58:19;;;;;;;;;;;;;;;17.38;50.86;101010.66;5037329;28;1152;-64
2022/07/17 08:00:44;;;;;;;;;;;;;;;17.28;50.67;101009.56;5037744;28;1186;-64
2022/07/17 08:03:10;;;;;;;;;;;;;;;17.34;50.33;101015.88;5037560;28;1080;-64
2022/07/17 08:05:36;;;;;;;;;;;;;;;17.33;50.27;101016.97;5037132;28;934;-64
2022/07/17 08:08:01;;;;;;;;;;;;;;;17.28;49.94;101022.47;5041510;28;1072;-64
2022/07/17 08:10:26;;;;;;;;;;;;;;;17.20;50.09;101020.25;5037639;28;1065;-64
2022/07/17 08:12:52;;;;;;;;;;;;;;;17.28;49.86;101014.22;5037072;28;1171;-64
2022/07/17 08:15:18;;;;;;;;;;;;;;;17.28;49.76;101025.22;5037245;28;1977;-64
2022/07/17 08:17:43;;;;;;;;;;;;;;;17.22;49.87;101029.03;5036127;28;998;-64
2022/07/17 08:20:09;;;;;;;;;;;;;;;17.36;49.08;101024.69;5040677;28;2842;-64
2022/07/17 08:22:34;;;;;;;;;;;;;;;17.39;49.19;101029.63;5036926;28;1113;-61
2022/07/17 08:25:00;;;;;;;;;;;;;;;17.26;49.17;101027.41;5036911;28;1013;-64
2022/07/17 08:27:25;;;;;;;;;;;;;;;17.32;49.29;101033.75;5037335;28;986;-64
2022/07/17 08:29:51;;;;;;;;;;;;;;;17.26;49.02;101036.50;5037440;28;1293;-64
2022/07/17 08:32:16;;;;;;;;;;;;;;;17.22;49.03;101029.03;5032836;28;1117;-65
2022/07/17 08:34:42;;;;;;;;;;;;;;;17.26;49.03;101032.91;5037268;28;993;-64
2022/07/17 08:37:07;;;;;;;;;;;;;;;17.33;48.69;101032.66;5037021;28;1975;-65
2022/07/17 08:39:32;;;;;;;;;;;;;;;17.31;48.84;101035.66;5036690;28;1123;-64
2022/07/17 08:41:58;;;;;;;;;;;;;;;17.27;48.95;101034.56;5033802;28;946;-62
2022/07/17 08:44:23;;;;;;;;;;;;;;;17.37;48.54;101048.31;5036381;28;1057;-64
2022/07/17 08:46:49;;;;;;;;;;;;;;;17.31;48.75;101040.34;5036656;28;1120;-65
2022/07/17 08:49:14;;;;;;;;;;;;;;;17.27;48.77;101046.38;5018871;28;2456;-64
2022/07/17 08:51:40;;;;;;;;;;;;;;;17.37;48.44;101039.25;5025128;28;975;-60
2022/07/17 08:54:05;;;;;;;;;;;;;;;17.34;48.53;101043.38;5036308;28;1095;-60
2022/07/17 08:56:31;;;;;;;;;;;;;;;17.29;48.40;101057.09;5023760;28;1906;-62
2022/07/17 08:58:56;;;;;;;;;;;;;;;17.39;48.05;101056.28;5037233;28;1014;-59
2022/07/17 09:01:22;;;;;;;;;;;;;;;17.21;48.67;101052.97;5039843;28;1105;-60
2022/07/17 09:04:05;;;;;;;;;;;;;;;17.31;48.58;101054.91;5021697;28;1022;-58
2022/07/17 09:06:30;;;;;;;;;;;;;;;17.32;48.47;101050.22;5037032;28;1057;-59
2022/07/17 09:09:00;;;;;;;;;;;;;;;17.32;48.41;101051.06;5036040;28;990;-58
2022/07/17 09:11:27;;;;;;;;;;;;;;;17.33;48.43;101051.88;5036043;28;1160;-58
2022/07/17 09:13:52;;;;;;;;;;;;;;;17.31;48.27;101060.41;5036455;28;1061;-58
2022/07/17 09:16:18;;;;;;;;;;;;;;;17.29;48.60;101062.59;5036980;28;1898;-61
2022/07/17 09:18:48;;;;;;;;;;;;;;;17.33;48.32;101049.94;5035925;28;2488;-59
2022/07/17 09:21:20;;;;;;;;;;;;;;;17.33;48.28;101060.94;5038375;28;1061;-59
2022/07/17 09:23:45;;;;;;;;;;;;;;;17.35;48.41;101057.91;5037066;28;1029;-60
2022/07/17 09:26:11;;;;;;;;;;;;;;;17.35;48.17;101052.44;5035874;28;1030;-59
2022/07/17 09:28:46;;;;;;;;;;;;;;;17.26;48.38;101063.97;5035851;28;1010;-58
2022/07/17 09:31:11;;;;;;;;;;;;;;;17.31;48.14;101065.91;5024579;28;1006;-56
2022/07/17 09:33:36;;;;;;;;;;;;;;;17.29;48.31;101062.59;5040024;28;1084;-60
2022/07/17 09:36:06;;;;;;;;;;;;;;;17.33;48.10;101055.44;5043448;28;1967;-59
2022/07/17 09:38:32;;;;;;;;;;;;;;;17.26;48.21;101058.47;5035696;28;1017;-59
2022/07/17 09:41:17;;;;;;;;;;;;;;;17.33;47.94;101052.69;5035486;28;1009;-58
2022/07/17 09:43:44;;;;;;;;;;;;;;;17.28;48.24;101045.28;5035518;28;1101;-59
2022/07/17 09:46:10;;;;;;;;;;;;;;;17.28;48.33;101060.97;5036319;28;1018;-57
2022/07/17 09:48:35;;;;;;;;;;;;;;;17.30;48.03;101053.25;5039316;28;2612;-58
2022/07/17 09:51:01;;;;;;;;;;;;;;;17.28;47.88;101045.28;5036646;28;1092;-59
2022/07/17 09:53:26;;;;;;;;;;;;;;;17.28;48.28;101049.97;5017762;28;1171;-59
2022/07/17 09:55:52;;;;;;;;;;;;;;;17.29;48.19;101057.09;5035837;28;1914;-59
2022/07/17 09:58:17;;;;;;;;;;;;;;;17.32;47.88;101061.22;5018285;28;1105;-58
2022/07/17 10:00:43;;;;;;;;;;;;;;;17.24;48.23;101059.84;5023405;28;986;-63
2022/07/17 10:03:08;;;;;;;;;;;;;;;17.34;47.75;101051.63;5035917;28;1081;-63
2022/07/17 10:05:34;;;;;;;;;;;;;;;17.29;47.85;101048.84;5035145;28;986;-63
2022/07/17 10:07:59;;;;;;;;;;;;;;;17.33;48.08;101058.19;5035996;28;1124;-64
2022/07/17 10:10:25;;;;;;;;;;;;;;;17.29;47.90;101057.09;5017861;28;1100;-62
2022/07/17 10:12:50;;;;;;;;;;;;;;;17.22;48.30;101053.78;5021598;28;1231;-61
2022/07/17 10:15:16;;;;;;;;;;;;;;;17.34;47.80;101054.34;5018123;28;1910;-63
2022/07/17 10:17:42;;;;;;;;;;;;;;;17.28;48.12;101044.47;5034376;28;1291;-60
2022/07/17 10:20:08;;;;;;;;;;;;;;;17.37;47.86;101053.81;5032735;28;2636;-52
2022/07/17 10:22:46;;;;;;;;;;;;;;;17.34;48.03;101050.81;5021310;28;1416;-55
2022/07/17 10:25:12;;;;;;;;;;;;;;;17.35;47.87;101045.03;5045044;28;982;-62
2022/07/17 10:27:44;;;;;;;;;;;;;;;17.32;47.84;101039.22;5044374;28;1021;-60
2022/07/17 10:30:10;;;;;;;;;;;;;;;17.25;47.96;101044.97;5038655;28;1147;-59
2022/07/17 10:32:36;;;;;;;;;;;;;;;17.33;47.75;101041.72;5039032;28;1120;-59
2022/07/17 10:35:03;;;;;;;;;;;;;;;17.35;47.90;101044.19;5039062;28;1076;-59
2022/07/17 10:37:37;;;;;;;;;;;;;;;17.41;47.72;101048.59;5039033;28;1983;-62
2022/07/17 10:40:23;;;;;;;;;;;;;;;17.29;47.84;101048.84;5032316;28;1268;-56
2022/07/17 10:42:52;;;;;;;;;;;;;;;17.40;47.96;101052.44;5037707;28;2043;-56
2022/07/17 10:45:18;;;;;;;;;;;;;;;17.35;47.93;101041.44;5037559;28;1086;-58
2022/07/17 10:47:43;;;;;;;;;;;;;;;17.29;48.17;101037.84;5034205;28;1072;-57
2022/07/17 10:50:10;;;;;;;;;;;;;;;17.32;47.97;101036.47;5034020;28;2622;-59
2022/07/17 10:52:35;;;;;;;;;;;;;;;17.38;47.92;101047.22;5034656;28;1255;-58
2022/07/17 10:55:04;;;;;;;;;;;;;;;17.35;47.97;101042.28;5038605;28;920;-59
2022/07/17 10:57:30;;;;;;;;;;;;;;;17.41;47.79;101032.94;5021341;28;1914;-58
2022/07/17 10:59:56;;;;;;;;;;;;;;;17.36;47.90;101040.34;5038471;28;1056;-58
2022/07/17 11:02:27;;;;;;;;;;;;;;;17.34;47.83;101015.88;5021167;28;1164;-61
2022/07/17 11:04:53;;;;;;;;;;;;;;;17.36;47.75;101046.69;5038523;28;997;-58
2022/07/17 11:07:18;;;;;;;;;;;;;;;17.28;48.01;101049.97;5038523;28;1072;-60
2022/07/17 11:09:47;;;;;;;;;;;;;;;17.41;47.82;101052.16;5043477;28;1199;-58
2022/07/17 11:12:13;;;;;;;;;;;;;;;17.40;47.83;101034.03;5038543;28;1073;-58
2022/07/17 11:14:38;;;;;;;;;;;;;;;17.38;47.92;101030.72;5041533;28;1069;-63
2022/07/17 11:17:04;;;;;;;;;;;;;;;17.42;47.60;101037.34;5037977;28;1906;-59
2022/07/17 11:19:31;;;;;;;;;;;;;;;17.34;48.01;101037.88;5038348;28;2417;-61
2022/07/17 11:21:57;;;;;;;;;;;;;;;17.40;47.71;101047.78;5038113;28;1080;-60
2022/07/17 11:24:23;;;;;;;;;;;;;;;17.40;47.83;101045.03;5040588;28;1101;-60
2022/07/17 11:26:49;;;;;;;;;;;;;;;17.39;47.92;101040.63;5041263;28;1251;-65
2022/07/17 11:29:15;;;;;;;;;;;;;;;17.48;47.54;101031.84;5036359;28;1017;-58
2022/07/17 11:31:40;;;;;;;;;;;;;;;17.42;47.60;101044.78;5041152;28;997;-64
2022/07/17 11:34:08;;;;;;;;;;;;;;;17.41;47.72;101038.44;5038194;28;993;-61
2022/07/17 11:36:41;;;;;;;;;;;;;;;17.42;47.53;101034.59;5037660;28;1918;-62
2022/07/17 11:39:10;;;;;;;;;;;;;;;17.49;47.47;101027.97;5039990;28;1073;-58
2022/07/17 11:41:39;;;;;;;;;;;;;;;17.41;47.78;101030.19;5037372;28;1037;-60
2022/07/17 11:44:06;;;;;;;;;;;;;;;17.44;47.63;101037.06;5037105;28;1029;-62
2022/07/17 11:46:31;;;;;;;;;;;;;;;17.43;47.76;101035.41;5020566;28;982;-64
2022/07/17 11:48:56;;;;;;;;;;;;;;;17.38;47.73;101036.22;5037463;28;2370;-60
2022/07/17 11:51:33;;;;;;;;;;;;;;;17.42;47.69;101034.59;5042671;28;1045;-60
2022/07/17 11:54:02;;;;;;;;;;;;;;;17.38;47.58;101027.97;5045317;28;1124;-61
2022/07/17 11:56:28;;;;;;;;;;;;;;;17.41;47.54;101019.19;5040840;28;1949;-62
2022/07/17 11:58:53;;;;;;;;;;;;;;;17.42;47.32;101028.28;5037457;28;1069;-62
2022/07/17 12:01:19;;;;;;;;;;;;;;;17.35;47.60;101028.53;5037654;28;998;-62
2022/07/17 12:03:44;;;;;;;;;;;;;;;17.37;47.60;101031.81;5037134;28;1072;-60
2022/07/17 12:06:09;;;;;;;;;;;;;;;17.42;47.72;101031.03;5036297;28;886;-63
2022/07/17 12:08:35;;;;;;;;;;;;;;;17.45;47.60;101041.47;5037534;28;1021;-62
2022/07/17 12:11:01;;;;;;;;;;;;;;;17.32;47.60;101044.72;5037468;28;1032;-59
2022/07/17 12:13:40;;;;;;;;;;;;;;;17.38;47.66;101044.47;5036954;28;1057;-58
2022/07/17 12:16:26;;;;;;;;;;;;;;;17.38;47.47;101038.97;5033314;28;1915;-62
2022/07/17 12:18:55;;;;;;;;;;;;;;;16.30;53.95;101035.81;5035528;28;1894;-58
2022/07/17 12:21:21;;;;;;;;;;;;;;;17.52;53.32;101027.47;5043409;28;970;-60
2022/07/17 12:23:54;;;;;;;;;;;;;;;19.40;50.66;101034.63;5038268;28;1097;-64
2022/07/17 12:26:20;;;;;;;;;;;;;;;15.21;61.13;101020.34;5038172;28;1194;-62
2022/07/17 12:28:45;;;;;;;;;;;;;;;17.90;55.66;101036.25;5037079;28;1087;-61
2022/07/17 12:31:11;;;;;;;;;;;;;;;16.91;58.83;101037.19;5040321;28;1192;-58
2022/07/17 12:33:37;;;;;;;;;;;;;;;16.40;60.72;101040.53;5039006;28;1144;-62
2022/07/17 12:36:02;;;;;;;;;;;;;;;19.17;54.60;101032.56;5036584;28;1967;-62
2022/07/17 12:38:28;;;;;;;;;;;;;;;15.44;62.95;101031.25;5037455;28;1112;-59
2022/07/17 12:40:53;;;;;;;;;;;;;;;16.68;57.03;101035.72;5034728;28;1200;-60